sensor_id;sensor_type;location;lat;lon;timestamp;P1;durP1;ratioP1;P2;durP2;ratioP2
21103;SDS011;10710;53.398;-1.514;2023-02-15T00:01:56;16.42;;;7.20;;
21103;SDS011;10710;53.398;-1.514;2023-02-15T00:04:23;19.58;;;8.80;;
21103;SDS011;10710;53.398;-1.514;2023-02-15T00:07:10;21.27;;;7.90;;
21103;SDS011;10710;53.398;-1.514;2023-02-15T00:09:35;16.10;;;7.53;;
21103;SDS011;10710;53.398;-1.514;2023-02-15T00:12:01;17.38;;;7.25;;
21103;SDS011;10710;53.398;-1.514;2023-02-15T00:14:26;16.27;;;7.38;;
21103;SDS011;10710;53.398;-1.514;2023-02-15T00:16:52;15.57;;;7.03;;
21103;SDS011;10710;53.398;-1.514;2023-02-15T00:19:20;18.75;;;8.02;;
21103;SDS011;10710;53.398;-1.514;2023-02-15T00:21:46;15.93;;;7.50;;
21103;SDS011;10710;53.398;-1.514;2023-02-15T00:24:14;16.65;;;7.15;;
21103;SDS011;10710;53.398;-1.514;2023-02-15T00:26:41;20.50;;;7.18;;
21103;SDS011;10710;53.398;-1.514;2023-02-15T00:29:08;20.37;;;8.13;;
21103;SDS011;10710;53.398;-1.514;2023-02-15T00:31:35;17.67;;;7.90;;
21103;SDS011;10710;53.398;-1.514;2023-02-15T00:34:05;16.58;;;8.10;;
21103;SDS011;10710;53.398;-1.514;2023-02-15T00:36:32;19.67;;;8.05;;
21103;SDS011;10710;53.398;-1.514;2023-02-15T00:38:58;19.23;;;8.43;;
21103;SDS011;10710;53.398;-1.514;2023-02-15T00:41:24;20.73;;;8.40;;
21103;SDS011;10710;53.398;-1.514;2023-02-15T00:43:50;21.25;;;8.27;;
21103;SDS011;10710;53.398;-1.514;2023-02-15T00:46:15;15.93;;;6.87;;
21103;SDS011;10710;53.398;-1.514;2023-02-15T00:48:41;18.70;;;7.97;;
21103;SDS011;10710;53.398;-1.514;2023-02-15T00:51:07;14.17;;;7.13;;
21103;SDS011;10710;53.398;-1.514;2023-02-15T00:53:32;19.65;;;8.07;;
21103;SDS011;10710;53.398;-1.514;2023-02-15T00:55:58;18.27;;;8.18;;
21103;SDS011;10710;53.398;-1.514;2023-02-15T00:58:24;17.08;;;8.10;;
21103;SDS011;10710;53.398;-1.514;2023-02-15T01:00:50;20.63;;;7.85;;
21103;SDS011;10710;53.398;-1.514;2023-02-15T01:03:17;16.75;;;7.60;;
21103;SDS011;10710;53.398;-1.514;2023-02-15T01:05:44;17.97;;;7.87;;
21103;SDS011;10710;53.398;-1.514;2023-02-15T01:08:11;21.05;;;8.20;;
21103;SDS011;10710;53.398;-1.514;2023-02-15T01:10:37;17.95;;;8.02;;
21103;SDS011;10710;53.398;-1.514;2023-02-15T01:13:02;17.30;;;7.80;;
21103;SDS011;10710;53.398;-1.514;2023-02-15T01:15:28;18.20;;;7.60;;
21103;SDS011;10710;53.398;-1.514;2023-02-15T01:17:54;22.52;;;8.30;;
21103;SDS011;10710;53.398;-1.514;2023-02-15T01:20:21;17.33;;;7.80;;
21103;SDS011;10710;53.398;-1.514;2023-02-15T01:22:49;20.00;;;8.23;;
21103;SDS011;10710;53.398;-1.514;2023-02-15T01:25:18;24.42;;;9.40;;
21103;SDS011;10710;53.398;-1.514;2023-02-15T01:27:46;20.58;;;8.55;;
21103;SDS011;10710;53.398;-1.514;2023-02-15T01:30:12;18.40;;;7.55;;
21103;SDS011;10710;53.398;-1.514;2023-02-15T01:32:39;20.77;;;7.47;;
21103;SDS011;10710;53.398;-1.514;2023-02-15T01:35:05;19.23;;;8.45;;
21103;SDS011;10710;53.398;-1.514;2023-02-15T01:37:31;19.73;;;8.05;;
21103;SDS011;10710;53.398;-1.514;2023-02-15T01:39:58;21.35;;;8.63;;
21103;SDS011;10710;53.398;-1.514;2023-02-15T01:42:25;25.63;;;10.38;;
21103;SDS011;10710;53.398;-1.514;2023-02-15T01:44:54;19.23;;;8.40;;
21103;SDS011;10710;53.398;-1.514;2023-02-15T01:47:29;21.30;;;8.87;;
21103;SDS011;10710;53.398;-1.514;2023-02-15T01:50:20;23.77;;;9.20;;
21103;SDS011;10710;53.398;-1.514;2023-02-15T01:55:20;23.80;;;10.20;;
21103;SDS011;10710;53.398;-1.514;2023-02-15T01:57:48;18.75;;;8.98;;
21103;SDS011;10710;53.398;-1.514;2023-02-15T02:00:15;19.17;;;9.52;;
21103;SDS011;10710;53.398;-1.514;2023-02-15T02:02:42;25.00;;;10.32;;
21103;SDS011;10710;53.398;-1.514;2023-02-15T02:05:09;19.15;;;8.93;;
21103;SDS011;10710;53.398;-1.514;2023-02-15T02:07:37;23.55;;;10.02;;
21103;SDS011;10710;53.398;-1.514;2023-02-15T02:10:06;23.75;;;9.52;;
21103;SDS011;10710;53.398;-1.514;2023-02-15T02:12:35;20.58;;;9.23;;
21103;SDS011;10710;53.398;-1.514;2023-02-15T02:15:04;24.08;;;9.35;;
21103;SDS011;10710;53.398;-1.514;2023-02-15T02:20:43;25.77;;;9.00;;
21103;SDS011;10710;53.398;-1.514;2023-02-15T02:23:24;22.42;;;9.85;;
21103;SDS011;10710;53.398;-1.514;2023-02-15T02:26:27;27.77;;;11.47;;
21103;SDS011;10710;53.398;-1.514;2023-02-15T02:34:33;31.90;;;11.27;;
21103;SDS011;10710;53.398;-1.514;2023-02-15T02:46:31;28.52;;;10.90;;
21103;SDS011;10710;53.398;-1.514;2023-02-15T02:49:01;24.30;;;10.70;;
21103;SDS011;10710;53.398;-1.514;2023-02-15T02:51:27;24.55;;;10.50;;
21103;SDS011;10710;53.398;-1.514;2023-02-15T02:53:56;23.43;;;10.50;;
21103;SDS011;10710;53.398;-1.514;2023-02-15T02:56:30;23.20;;;10.53;;
21103;SDS011;10710;53.398;-1.514;2023-02-15T02:59:12;31.55;;;11.15;;
21103;SDS011;10710;53.398;-1.514;2023-02-15T03:01:52;28.40;;;10.85;;
21103;SDS011;10710;53.398;-1.514;2023-02-15T03:04:25;19.83;;;9.77;;
21103;SDS011;10710;53.398;-1.514;2023-02-15T03:06:55;21.25;;;9.32;;
21103;SDS011;10710;53.398;-1.514;2023-02-15T03:09:27;26.85;;;10.25;;
21103;SDS011;10710;53.398;-1.514;2023-02-15T03:12:00;22.43;;;9.43;;
21103;SDS011;10710;53.398;-1.514;2023-02-15T03:14:28;29.03;;;10.53;;
21103;SDS011;10710;53.398;-1.514;2023-02-15T03:16:54;20.92;;;9.60;;
21103;SDS011;10710;53.398;-1.514;2023-02-15T03:19:24;28.10;;;10.88;;
21103;SDS011;10710;53.398;-1.514;2023-02-15T03:21:55;23.27;;;10.95;;
21103;SDS011;10710;53.398;-1.514;2023-02-15T03:25:04;20.83;;;9.38;;
21103;SDS011;10710;53.398;-1.514;2023-02-15T03:27:33;24.40;;;10.57;;
21103;SDS011;10710;53.398;-1.514;2023-02-15T03:30:04;18.90;;;9.90;;
21103;SDS011;10710;53.398;-1.514;2023-02-15T03:32:32;26.10;;;10.93;;
21103;SDS011;10710;53.398;-1.514;2023-02-15T03:35:00;22.83;;;10.05;;
21103;SDS011;10710;53.398;-1.514;2023-02-15T03:37:28;22.87;;;9.77;;
21103;SDS011;10710;53.398;-1.514;2023-02-15T03:42:56;22.92;;;10.15;;
21103;SDS011;10710;53.398;-1.514;2023-02-15T03:45:28;25.70;;;9.80;;
21103;SDS011;10710;53.398;-1.514;2023-02-15T03:47:57;21.65;;;9.65;;
21103;SDS011;10710;53.398;-1.514;2023-02-15T03:50:29;23.33;;;10.05;;
21103;SDS011;10710;53.398;-1.514;2023-02-15T03:53:17;20.10;;;10.10;;
21103;SDS011;10710;53.398;-1.514;2023-02-15T03:55:46;22.90;;;9.43;;
21103;SDS011;10710;53.398;-1.514;2023-02-15T03:58:13;24.38;;;10.15;;
21103;SDS011;10710;53.398;-1.514;2023-02-15T04:00:58;30.63;;;9.50;;
21103;SDS011;10710;53.398;-1.514;2023-02-15T04:03:45;23.67;;;9.80;;
21103;SDS011;10710;53.398;-1.514;2023-02-15T04:06:17;32.50;;;9.43;;
21103;SDS011;10710;53.398;-1.514;2023-02-15T04:08:43;28.23;;;10.17;;
21103;SDS011;10710;53.398;-1.514;2023-02-15T04:11:28;24.33;;;8.88;;
21103;SDS011;10710;53.398;-1.514;2023-02-15T04:13:53;22.85;;;9.95;;
21103;SDS011;10710;53.398;-1.514;2023-02-15T04:16:24;22.08;;;10.52;;
21103;SDS011;10710;53.398;-1.514;2023-02-15T04:18:50;19.83;;;9.98;;
21103;SDS011;10710;53.398;-1.514;2023-02-15T04:21:35;20.13;;;8.10;;
21103;SDS011;10710;53.398;-1.514;2023-02-15T04:24:19;24.40;;;9.65;;
21103;SDS011;10710;53.398;-1.514;2023-02-15T04:27:04;20.25;;;9.45;;
21103;SDS011;10710;53.398;-1.514;2023-02-15T04:29:30;20.50;;;10.10;;
21103;SDS011;10710;53.398;-1.514;2023-02-15T04:31:57;21.77;;;8.90;;
21103;SDS011;10710;53.398;-1.514;2023-02-15T04:34:24;23.25;;;8.80;;
21103;SDS011;10710;53.398;-1.514;2023-02-15T04:36:50;22.67;;;9.70;;
21103;SDS011;10710;53.398;-1.514;2023-02-15T04:39:16;23.80;;;10.25;;
21103;SDS011;10710;53.398;-1.514;2023-02-15T04:41:43;23.23;;;9.13;;
21103;SDS011;10710;53.398;-1.514;2023-02-15T04:44:09;22.60;;;8.85;;
21103;SDS011;10710;53.398;-1.514;2023-02-15T04:46:36;21.20;;;8.98;;
21103;SDS011;10710;53.398;-1.514;2023-02-15T04:49:02;23.38;;;8.77;;
21103;SDS011;10710;53.398;-1.514;2023-02-15T04:51:27;21.02;;;8.80;;
21103;SDS011;10710;53.398;-1.514;2023-02-15T04:53:53;23.15;;;9.65;;
21103;SDS011;10710;53.398;-1.514;2023-02-15T04:56:19;18.02;;;8.80;;
21103;SDS011;10710;53.398;-1.514;2023-02-15T04:58:45;19.13;;;9.20;;
21103;SDS011;10710;53.398;-1.514;2023-02-15T05:01:11;26.93;;;9.60;;
21103;SDS011;10710;53.398;-1.514;2023-02-15T05:03:37;22.42;;;9.38;;
21103;SDS011;10710;53.398;-1.514;2023-02-15T05:06:03;21.95;;;9.93;;
21103;SDS011;10710;53.398;-1.514;2023-02-15T05:08:29;25.00;;;9.50;;
21103;SDS011;10710;53.398;-1.514;2023-02-15T05:10:56;23.07;;;10.07;;
21103;SDS011;10710;53.398;-1.514;2023-02-15T05:13:21;28.42;;;9.75;;
21103;SDS011;10710;53.398;-1.514;2023-02-15T05:15:48;24.17;;;10.25;;
21103;SDS011;10710;53.398;-1.514;2023-02-15T05:18:14;24.10;;;10.23;;
21103;SDS011;10710;53.398;-1.514;2023-02-15T05:20:41;25.77;;;9.55;;
21103;SDS011;10710;53.398;-1.514;2023-02-15T05:23:06;22.90;;;9.10;;
21103;SDS011;10710;53.398;-1.514;2023-02-15T05:25:32;23.53;;;9.57;;
21103;SDS011;10710;53.398;-1.514;2023-02-15T05:28:16;22.75;;;9.68;;
21103;SDS011;10710;53.398;-1.514;2023-02-15T05:30:45;23.23;;;10.33;;
21103;SDS011;10710;53.398;-1.514;2023-02-15T05:33:12;26.13;;;10.52;;
21103;SDS011;10710;53.398;-1.514;2023-02-15T05:35:38;23.25;;;10.00;;
21103;SDS011;10710;53.398;-1.514;2023-02-15T05:38:03;20.85;;;9.95;;
21103;SDS011;10710;53.398;-1.514;2023-02-15T05:40:29;31.48;;;11.45;;
21103;SDS011;10710;53.398;-1.514;2023-02-15T05:42:55;27.70;;;10.30;;
21103;SDS011;10710;53.398;-1.514;2023-02-15T05:45:22;28.73;;;10.15;;
21103;SDS011;10710;53.398;-1.514;2023-02-15T05:47:48;22.58;;;9.95;;
21103;SDS011;10710;53.398;-1.514;2023-02-15T05:50:13;25.08;;;10.73;;
21103;SDS011;10710;53.398;-1.514;2023-02-15T05:52:39;21.90;;;9.60;;
21103;SDS011;10710;53.398;-1.514;2023-02-15T05:55:05;25.88;;;10.15;;
21103;SDS011;10710;53.398;-1.514;2023-02-15T05:57:33;23.95;;;10.27;;
21103;SDS011;10710;53.398;-1.514;2023-02-15T05:59:59;21.45;;;9.63;;
21103;SDS011;10710;53.398;-1.514;2023-02-15T06:02:25;25.07;;;10.87;;
21103;SDS011;10710;53.398;-1.514;2023-02-15T06:04:51;24.57;;;10.50;;
21103;SDS011;10710;53.398;-1.514;2023-02-15T06:07:17;24.13;;;10.40;;
21103;SDS011;10710;53.398;-1.514;2023-02-15T06:09:42;25.83;;;11.23;;
21103;SDS011;10710;53.398;-1.514;2023-02-15T06:12:08;25.45;;;10.63;;
21103;SDS011;10710;53.398;-1.514;2023-02-15T06:14:34;31.63;;;12.75;;
21103;SDS011;10710;53.398;-1.514;2023-02-15T06:16:59;22.83;;;10.35;;
21103;SDS011;10710;53.398;-1.514;2023-02-15T06:19:25;25.38;;;10.40;;
21103;SDS011;10710;53.398;-1.514;2023-02-15T06:21:51;22.93;;;10.43;;
21103;SDS011;10710;53.398;-1.514;2023-02-15T06:24:16;26.30;;;11.07;;
21103;SDS011;10710;53.398;-1.514;2023-02-15T06:26:42;30.17;;;11.77;;
21103;SDS011;10710;53.398;-1.514;2023-02-15T06:29:07;28.50;;;10.40;;
21103;SDS011;10710;53.398;-1.514;2023-02-15T06:31:33;27.73;;;10.15;;
21103;SDS011;10710;53.398;-1.514;2023-02-15T06:33:59;25.63;;;11.25;;
21103;SDS011;10710;53.398;-1.514;2023-02-15T06:36:28;29.27;;;10.47;;
21103;SDS011;10710;53.398;-1.514;2023-02-15T06:38:54;25.50;;;10.70;;
21103;SDS011;10710;53.398;-1.514;2023-02-15T06:41:20;31.00;;;11.10;;
21103;SDS011;10710;53.398;-1.514;2023-02-15T06:43:46;26.27;;;11.02;;
21103;SDS011;10710;53.398;-1.514;2023-02-15T06:46:11;26.07;;;9.50;;
21103;SDS011;10710;53.398;-1.514;2023-02-15T06:48:37;27.00;;;11.00;;
21103;SDS011;10710;53.398;-1.514;2023-02-15T06:51:03;25.13;;;11.52;;
21103;SDS011;10710;53.398;-1.514;2023-02-15T06:53:28;27.92;;;10.75;;
21103;SDS011;10710;53.398;-1.514;2023-02-15T06:56:01;32.90;;;12.73;;
21103;SDS011;10710;53.398;-1.514;2023-02-15T06:58:28;33.67;;;13.03;;
21103;SDS011;10710;53.398;-1.514;2023-02-15T07:00:54;29.80;;;12.05;;
21103;SDS011;10710;53.398;-1.514;2023-02-15T07:03:19;141.57;;;48.55;;
21103;SDS011;10710;53.398;-1.514;2023-02-15T07:05:45;51.77;;;20.37;;
21103;SDS011;10710;53.398;-1.514;2023-02-15T07:08:12;38.72;;;15.02;;
21103;SDS011;10710;53.398;-1.514;2023-02-15T07:10:38;30.58;;;12.55;;
21103;SDS011;10710;53.398;-1.514;2023-02-15T07:13:04;31.38;;;11.60;;
21103;SDS011;10710;53.398;-1.514;2023-02-15T07:15:29;36.13;;;14.75;;
21103;SDS011;10710;53.398;-1.514;2023-02-15T07:17:56;30.58;;;12.43;;
21103;SDS011;10710;53.398;-1.514;2023-02-15T07:20:23;25.33;;;10.10;;
21103;SDS011;10710;53.398;-1.514;2023-02-15T07:22:49;31.00;;;11.48;;
21103;SDS011;10710;53.398;-1.514;2023-02-15T07:25:15;32.73;;;12.50;;
21103;SDS011;10710;53.398;-1.514;2023-02-15T07:27:41;31.20;;;12.18;;
21103;SDS011;10710;53.398;-1.514;2023-02-15T07:30:09;29.80;;;12.98;;
21103;SDS011;10710;53.398;-1.514;2023-02-15T07:32:36;32.40;;;12.77;;
21103;SDS011;10710;53.398;-1.514;2023-02-15T07:35:22;52.35;;;21.80;;
21103;SDS011;10710;53.398;-1.514;2023-02-15T07:37:47;30.95;;;11.95;;
21103;SDS011;10710;53.398;-1.514;2023-02-15T07:40:13;31.73;;;12.20;;
21103;SDS011;10710;53.398;-1.514;2023-02-15T07:42:39;26.67;;;12.27;;
21103;SDS011;10710;53.398;-1.514;2023-02-15T07:45:04;34.23;;;15.73;;
21103;SDS011;10710;53.398;-1.514;2023-02-15T07:47:30;37.40;;;13.25;;
21103;SDS011;10710;53.398;-1.514;2023-02-15T07:49:56;33.13;;;13.23;;
21103;SDS011;10710;53.398;-1.514;2023-02-15T07:52:22;33.13;;;14.57;;
21103;SDS011;10710;53.398;-1.514;2023-02-15T07:54:47;42.35;;;18.83;;
21103;SDS011;10710;53.398;-1.514;2023-02-15T07:57:13;42.40;;;17.42;;
21103;SDS011;10710;53.398;-1.514;2023-02-15T07:59:39;33.50;;;14.52;;
21103;SDS011;10710;53.398;-1.514;2023-02-15T08:02:07;37.25;;;15.18;;
21103;SDS011;10710;53.398;-1.514;2023-02-15T08:04:35;31.75;;;13.88;;
21103;SDS011;10710;53.398;-1.514;2023-02-15T08:07:00;28.00;;;12.33;;
21103;SDS011;10710;53.398;-1.514;2023-02-15T08:09:26;34.93;;;13.40;;
21103;SDS011;10710;53.398;-1.514;2023-02-15T08:11:52;41.25;;;14.93;;
21103;SDS011;10710;53.398;-1.514;2023-02-15T08:14:18;29.80;;;13.80;;
21103;SDS011;10710;53.398;-1.514;2023-02-15T08:16:52;31.90;;;14.13;;
21103;SDS011;10710;53.398;-1.514;2023-02-15T08:19:23;26.42;;;12.23;;
21103;SDS011;10710;53.398;-1.514;2023-02-15T08:21:53;38.45;;;13.88;;
21103;SDS011;10710;53.398;-1.514;2023-02-15T08:24:22;34.70;;;13.57;;
21103;SDS011;10710;53.398;-1.514;2023-02-15T08:26:50;33.95;;;13.75;;
21103;SDS011;10710;53.398;-1.514;2023-02-15T08:29:17;40.33;;;14.43;;
21103;SDS011;10710;53.398;-1.514;2023-02-15T08:31:44;36.05;;;14.65;;
21103;SDS011;10710;53.398;-1.514;2023-02-15T08:34:12;32.70;;;14.63;;
21103;SDS011;10710;53.398;-1.514;2023-02-15T08:36:40;37.15;;;14.52;;
21103;SDS011;10710;53.398;-1.514;2023-02-15T08:39:06;32.72;;;14.27;;
21103;SDS011;10710;53.398;-1.514;2023-02-15T08:41:33;39.75;;;16.85;;
21103;SDS011;10710;53.398;-1.514;2023-02-15T08:44:01;36.97;;;16.08;;
21103;SDS011;10710;53.398;-1.514;2023-02-15T08:46:32;33.03;;;15.48;;
21103;SDS011;10710;53.398;-1.514;2023-02-15T08:49:00;40.38;;;16.30;;
21103;SDS011;10710;53.398;-1.514;2023-02-15T08:51:27;45.92;;;17.95;;
21103;SDS011;10710;53.398;-1.514;2023-02-15T08:53:55;34.35;;;15.07;;
21103;SDS011;10710;53.398;-1.514;2023-02-15T08:56:24;38.53;;;15.87;;
21103;SDS011;10710;53.398;-1.514;2023-02-15T08:58:51;42.90;;;15.75;;
21103;SDS011;10710;53.398;-1.514;2023-02-15T09:01:28;40.47;;;17.40;;
21103;SDS011;10710;53.398;-1.514;2023-02-15T09:03:56;40.13;;;17.15;;
21103;SDS011;10710;53.398;-1.514;2023-02-15T09:06:23;40.85;;;15.30;;
21103;SDS011;10710;53.398;-1.514;2023-02-15T09:08:50;37.75;;;14.85;;
21103;SDS011;10710;53.398;-1.514;2023-02-15T09:11:20;32.10;;;14.63;;
21103;SDS011;10710;53.398;-1.514;2023-02-15T09:13:59;37.97;;;16.70;;
21103;SDS011;10710;53.398;-1.514;2023-02-15T09:16:28;40.35;;;18.15;;
21103;SDS011;10710;53.398;-1.514;2023-02-15T09:18:55;37.83;;;16.17;;
21103;SDS011;10710;53.398;-1.514;2023-02-15T09:21:22;40.33;;;18.30;;
21103;SDS011;10710;53.398;-1.514;2023-02-15T09:23:50;41.63;;;16.93;;
21103;SDS011;10710;53.398;-1.514;2023-02-15T09:26:20;41.65;;;16.38;;
21103;SDS011;10710;53.398;-1.514;2023-02-15T09:28:47;41.30;;;14.50;;
21103;SDS011;10710;53.398;-1.514;2023-02-15T09:31:17;38.60;;;15.27;;
21103;SDS011;10710;53.398;-1.514;2023-02-15T09:33:45;40.25;;;14.93;;
21103;SDS011;10710;53.398;-1.514;2023-02-15T09:36:22;39.53;;;14.75;;
21103;SDS011;10710;53.398;-1.514;2023-02-15T09:38:56;41.53;;;15.13;;
21103;SDS011;10710;53.398;-1.514;2023-02-15T09:42:09;47.03;;;15.98;;
21103;SDS011;10710;53.398;-1.514;2023-02-15T09:44:33;42.22;;;15.32;;
21103;SDS011;10710;53.398;-1.514;2023-02-15T09:50:21;39.80;;;16.65;;
21103;SDS011;10710;53.398;-1.514;2023-02-15T10:12:06;30.25;;;12.68;;
21103;SDS011;10710;53.398;-1.514;2023-02-15T10:28:19;28.85;;;11.68;;
21103;SDS011;10710;53.398;-1.514;2023-02-15T10:30:49;35.60;;;11.50;;
21103;SDS011;10710;53.398;-1.514;2023-02-15T10:33:30;25.80;;;11.23;;
21103;SDS011;10710;53.398;-1.514;2023-02-15T11:01:25;30.87;;;12.43;;
21103;SDS011;10710;53.398;-1.514;2023-02-15T11:06:54;30.77;;;12.40;;
21103;SDS011;10710;53.398;-1.514;2023-02-15T11:09:25;29.88;;;12.43;;
21103;SDS011;10710;53.398;-1.514;2023-02-15T11:11:59;27.73;;;12.40;;
21103;SDS011;10710;53.398;-1.514;2023-02-15T11:17:06;33.38;;;12.60;;
21103;SDS011;10710;53.398;-1.514;2023-02-15T11:19:48;32.85;;;13.15;;
21103;SDS011;10710;53.398;-1.514;2023-02-15T11:22:28;26.27;;;12.00;;
21103;SDS011;10710;53.398;-1.514;2023-02-15T11:24:57;26.00;;;11.27;;
21103;SDS011;10710;53.398;-1.514;2023-02-15T11:27:26;22.50;;;10.90;;
21103;SDS011;10710;53.398;-1.514;2023-02-15T11:30:05;21.05;;;10.43;;
21103;SDS011;10710;53.398;-1.514;2023-02-15T11:32:44;22.63;;;10.55;;
21103;SDS011;10710;53.398;-1.514;2023-02-15T11:37:40;27.37;;;10.57;;
21103;SDS011;10710;53.398;-1.514;2023-02-15T11:40:32;21.15;;;10.77;;
21103;SDS011;10710;53.398;-1.514;2023-02-15T11:43:03;20.30;;;10.25;;
21103;SDS011;10710;53.398;-1.514;2023-02-15T11:45:36;23.35;;;11.23;;
21103;SDS011;10710;53.398;-1.514;2023-02-15T11:48:11;20.50;;;9.82;;
21103;SDS011;10710;53.398;-1.514;2023-02-15T11:50:39;22.92;;;10.27;;
21103;SDS011;10710;53.398;-1.514;2023-02-15T11:53:09;23.52;;;10.00;;
21103;SDS011;10710;53.398;-1.514;2023-02-15T11:55:45;19.52;;;8.95;;
21103;SDS011;10710;53.398;-1.514;2023-02-15T12:00:56;25.67;;;10.25;;
21103;SDS011;10710;53.398;-1.514;2023-02-15T12:03:46;22.45;;;9.55;;
21103;SDS011;10710;53.398;-1.514;2023-02-15T12:06:14;20.87;;;9.40;;
21103;SDS011;10710;53.398;-1.514;2023-02-15T12:08:55;19.65;;;8.93;;
21103;SDS011;10710;53.398;-1.514;2023-02-15T12:11:32;25.33;;;10.50;;
21103;SDS011;10710;53.398;-1.514;2023-02-15T12:14:04;24.55;;;8.68;;
21103;SDS011;10710;53.398;-1.514;2023-02-15T12:16:34;19.63;;;9.45;;
21103;SDS011;10710;53.398;-1.514;2023-02-15T12:19:30;25.40;;;11.02;;
21103;SDS011;10710;53.398;-1.514;2023-02-15T12:21:59;25.38;;;10.80;;
21103;SDS011;10710;53.398;-1.514;2023-02-15T12:24:28;23.08;;;9.93;;
21103;SDS011;10710;53.398;-1.514;2023-02-15T12:26:58;20.40;;;9.07;;
21103;SDS011;10710;53.398;-1.514;2023-02-15T12:29:26;22.45;;;9.40;;
21103;SDS011;10710;53.398;-1.514;2023-02-15T12:31:55;19.95;;;9.77;;
21103;SDS011;10710;53.398;-1.514;2023-02-15T12:34:26;28.90;;;9.07;;
21103;SDS011;10710;53.398;-1.514;2023-02-15T12:36:56;18.48;;;8.75;;
21103;SDS011;10710;53.398;-1.514;2023-02-15T12:44:26;22.37;;;8.17;;
21103;SDS011;10710;53.398;-1.514;2023-02-15T12:46:58;15.97;;;7.93;;
21103;SDS011;10710;53.398;-1.514;2023-02-15T12:49:26;18.00;;;7.45;;
21103;SDS011;10710;53.398;-1.514;2023-02-15T12:51:57;18.13;;;7.55;;
21103;SDS011;10710;53.398;-1.514;2023-02-15T12:54:32;15.83;;;7.13;;
21103;SDS011;10710;53.398;-1.514;2023-02-15T12:57:12;16.75;;;7.55;;
21103;SDS011;10710;53.398;-1.514;2023-02-15T12:59:49;21.38;;;8.30;;
21103;SDS011;10710;53.398;-1.514;2023-02-15T13:02:23;16.95;;;7.82;;
21103;SDS011;10710;53.398;-1.514;2023-02-15T13:04:52;17.17;;;8.07;;
21103;SDS011;10710;53.398;-1.514;2023-02-15T13:07:18;19.55;;;8.65;;
21103;SDS011;10710;53.398;-1.514;2023-02-15T13:09:45;17.23;;;8.55;;
21103;SDS011;10710;53.398;-1.514;2023-02-15T13:12:23;21.03;;;8.63;;
21103;SDS011;10710;53.398;-1.514;2023-02-15T13:14:54;19.50;;;8.27;;
21103;SDS011;10710;53.398;-1.514;2023-02-15T13:17:28;20.98;;;9.10;;
21103;SDS011;10710;53.398;-1.514;2023-02-15T13:19:58;19.95;;;8.60;;
21103;SDS011;10710;53.398;-1.514;2023-02-15T13:22:33;22.83;;;8.35;;
21103;SDS011;10710;53.398;-1.514;2023-02-15T13:25:25;27.38;;;9.80;;
21103;SDS011;10710;53.398;-1.514;2023-02-15T13:27:55;17.42;;;8.45;;
21103;SDS011;10710;53.398;-1.514;2023-02-15T13:33:00;16.48;;;8.25;;
21103;SDS011;10710;53.398;-1.514;2023-02-15T13:35:32;18.13;;;8.15;;
21103;SDS011;10710;53.398;-1.514;2023-02-15T13:38:13;19.48;;;7.53;;
21103;SDS011;10710;53.398;-1.514;2023-02-15T13:43:23;14.50;;;7.35;;
21103;SDS011;10710;53.398;-1.514;2023-02-15T13:49:23;17.80;;;7.93;;
21103;SDS011;10710;53.398;-1.514;2023-02-15T13:52:05;17.83;;;7.63;;
21103;SDS011;10710;53.398;-1.514;2023-02-15T13:54:36;18.70;;;8.15;;
21103;SDS011;10710;53.398;-1.514;2023-02-15T13:57:31;18.73;;;8.18;;
21103;SDS011;10710;53.398;-1.514;2023-02-15T14:08:44;17.17;;;8.00;;
21103;SDS011;10710;53.398;-1.514;2023-02-15T14:11:16;15.57;;;7.20;;
21103;SDS011;10710;53.398;-1.514;2023-02-15T14:14:08;14.68;;;6.45;;
21103;SDS011;10710;53.398;-1.514;2023-02-15T14:19:21;16.27;;;6.70;;
21103;SDS011;10710;53.398;-1.514;2023-02-15T14:22:18;15.20;;;6.80;;
21103;SDS011;10710;53.398;-1.514;2023-02-15T14:24:51;14.15;;;6.82;;
21103;SDS011;10710;53.398;-1.514;2023-02-15T14:30:36;14.45;;;6.65;;
21103;SDS011;10710;53.398;-1.514;2023-02-15T14:33:08;15.00;;;6.93;;
21103;SDS011;10710;53.398;-1.514;2023-02-15T14:35:49;16.33;;;7.35;;
21103;SDS011;10710;53.398;-1.514;2023-02-15T14:49:16;17.70;;;7.65;;
21103;SDS011;10710;53.398;-1.514;2023-02-15T14:51:55;16.95;;;8.15;;
21103;SDS011;10710;53.398;-1.514;2023-02-15T15:04:52;16.25;;;7.78;;
21103;SDS011;10710;53.398;-1.514;2023-02-15T15:07:24;15.25;;;6.65;;
21103;SDS011;10710;53.398;-1.514;2023-02-15T15:10:04;21.33;;;9.60;;
21103;SDS011;10710;53.398;-1.514;2023-02-15T15:18:03;12.15;;;5.95;;
21103;SDS011;10710;53.398;-1.514;2023-02-15T15:20:49;19.10;;;6.70;;
21103;SDS011;10710;53.398;-1.514;2023-02-15T15:31:07;15.07;;;7.40;;
21103;SDS011;10710;53.398;-1.514;2023-02-15T15:50:43;12.93;;;6.57;;
21103;SDS011;10710;53.398;-1.514;2023-02-15T15:53:16;17.30;;;7.40;;
21103;SDS011;10710;53.398;-1.514;2023-02-15T15:55:46;17.40;;;8.48;;
21103;SDS011;10710;53.398;-1.514;2023-02-15T15:58:14;16.20;;;7.57;;
21103;SDS011;10710;53.398;-1.514;2023-02-15T16:00:43;15.25;;;7.22;;
21103;SDS011;10710;53.398;-1.514;2023-02-15T16:03:48;16.90;;;7.55;;
21103;SDS011;10710;53.398;-1.514;2023-02-15T16:06:26;13.77;;;6.75;;
21103;SDS011;10710;53.398;-1.514;2023-02-15T16:08:53;15.32;;;7.43;;
21103;SDS011;10710;53.398;-1.514;2023-02-15T16:11:21;13.48;;;7.18;;
21103;SDS011;10710;53.398;-1.514;2023-02-15T16:13:52;15.63;;;7.15;;
21103;SDS011;10710;53.398;-1.514;2023-02-15T16:16:22;19.08;;;7.65;;
21103;SDS011;10710;53.398;-1.514;2023-02-15T16:18:52;15.88;;;7.38;;
21103;SDS011;10710;53.398;-1.514;2023-02-15T16:21:20;16.27;;;7.70;;
21103;SDS011;10710;53.398;-1.514;2023-02-15T16:23:57;22.67;;;8.25;;
21103;SDS011;10710;53.398;-1.514;2023-02-15T16:26:49;10.98;;;6.03;;
21103;SDS011;10710;53.398;-1.514;2023-02-15T16:29:39;16.15;;;6.55;;
21103;SDS011;10710;53.398;-1.514;2023-02-15T16:32:14;13.55;;;7.10;;
21103;SDS011;10710;53.398;-1.514;2023-02-15T16:34:51;12.95;;;6.03;;
21103;SDS011;10710;53.398;-1.514;2023-02-15T16:37:21;12.00;;;5.93;;
21103;SDS011;10710;53.398;-1.514;2023-02-15T16:39:51;15.00;;;7.03;;
21103;SDS011;10710;53.398;-1.514;2023-02-15T16:42:17;14.53;;;7.03;;
21103;SDS011;10710;53.398;-1.514;2023-02-15T16:44:48;13.32;;;6.55;;
21103;SDS011;10710;53.398;-1.514;2023-02-15T16:47:24;13.05;;;6.45;;
21103;SDS011;10710;53.398;-1.514;2023-02-15T16:49:53;13.93;;;6.97;;
21103;SDS011;10710;53.398;-1.514;2023-02-15T16:52:23;13.98;;;6.03;;
21103;SDS011;10710;53.398;-1.514;2023-02-15T16:54:55;13.95;;;6.97;;
21103;SDS011;10710;53.398;-1.514;2023-02-15T16:57:22;12.77;;;6.35;;
21103;SDS011;10710;53.398;-1.514;2023-02-15T16:59:51;15.63;;;6.93;;
21103;SDS011;10710;53.398;-1.514;2023-02-15T17:02:24;14.63;;;6.55;;
21103;SDS011;10710;53.398;-1.514;2023-02-15T17:07:33;13.00;;;6.53;;
21103;SDS011;10710;53.398;-1.514;2023-02-15T17:10:16;13.82;;;6.63;;
21103;SDS011;10710;53.398;-1.514;2023-02-15T17:12:52;10.82;;;5.43;;
21103;SDS011;10710;53.398;-1.514;2023-02-15T17:15:26;12.00;;;5.85;;
21103;SDS011;10710;53.398;-1.514;2023-02-15T17:17:54;12.45;;;6.25;;
21103;SDS011;10710;53.398;-1.514;2023-02-15T17:20:22;14.18;;;7.22;;
21103;SDS011;10710;53.398;-1.514;2023-02-15T17:22:49;13.82;;;5.55;;
21103;SDS011;10710;53.398;-1.514;2023-02-15T17:25:19;15.32;;;6.88;;
21103;SDS011;10710;53.398;-1.514;2023-02-15T17:27:51;13.82;;;6.95;;
21103;SDS011;10710;53.398;-1.514;2023-02-15T17:30:24;14.38;;;6.70;;
21103;SDS011;10710;53.398;-1.514;2023-02-15T17:32:58;14.23;;;7.13;;
21103;SDS011;10710;53.398;-1.514;2023-02-15T17:35:30;19.88;;;7.40;;